Jefferson City, Missouri
Current Conditions -  °F | °C
As of 9:53 AM on Friday 28 Nov 2014 (Local Time) from KJEF Reporting Station
Clear Clear  
Wind Chill: 39°   Ceiling: Unl
Heat Index: 45°   Visibility: 10mi
Dew Point: 28°   Wind: 12mph
Humidity: 52%   Direction: 180°S
Pressure: 30.08"   Gusts: 24mph
Location:  38.58°N, 92.18°W
Report Text: KJEF 281553Z 18010G21KT 10SM CLR 07/M02 A3008 RMK AO2 SLP181 T00721022 $
Loading
Personal Weather Stations






























Interactive Weather Map New forecast layout! Learn more

10-Day Weather Forecast

Advertisements
Track Severe Weather on mobile